createdAt,value
2018-09-22T00:01:27.342Z,54.33
2018-09-22T00:03:54.529Z,54.16
2018-09-22T00:06:21.709Z,54.20
2018-09-22T00:08:48.850Z,55.05
2018-09-22T00:11:15.979Z,54.62
2018-09-22T00:13:43.101Z,54.93
2018-09-22T00:16:10.231Z,54.99
2018-09-22T00:18:37.367Z,55.25
2018-09-22T00:21:04.862Z,55.00
2018-09-22T00:23:31.965Z,56.01
2018-09-22T00:25:59.123Z,55.54
2018-09-22T00:28:26.277Z,55.64
2018-09-22T00:30:53.414Z,55.29
2018-09-22T00:33:20.530Z,56.25
2018-09-22T00:35:47.724Z,55.85
2018-09-22T00:38:14.909Z,56.23
2018-09-22T00:40:42.053Z,56.82
2018-09-22T00:43:09.176Z,57.08
2018-09-22T00:45:36.478Z,56.67
2018-09-22T00:48:03.737Z,57.13
2018-09-22T00:50:30.930Z,57.42
2018-09-22T00:52:58.067Z,57.41
2018-09-22T00:55:25.289Z,57.53
2018-09-22T00:57:52.465Z,57.39
2018-09-22T01:00:19.588Z,57.82
2018-09-22T01:02:46.731Z,57.42
2018-09-22T01:05:13.953Z,57.84
2018-09-22T01:07:41.175Z,57.34
2018-09-22T01:10:08.451Z,57.92
2018-09-22T01:12:35.600Z,57.11
2018-09-22T01:15:02.827Z,57.10
2018-09-22T01:17:29.981Z,57.42
2018-09-22T01:19:57.191Z,57.38
2018-09-22T01:22:24.461Z,57.27
2018-09-22T01:24:51.626Z,57.90
2018-09-22T01:27:18.779Z,57.63
2018-09-22T01:29:45.954Z,57.53
2018-09-22T01:32:13.183Z,57.32
2018-09-22T01:34:40.366Z,57.41
2018-09-22T01:37:07.634Z,57.68
2018-09-22T01:39:34.913Z,57.84
2018-09-22T01:42:02.109Z,57.26
2018-09-22T01:44:29.306Z,57.30
2018-09-22T01:46:56.765Z,57.29
2018-09-22T01:49:23.962Z,56.87
2018-09-22T01:51:51.164Z,57.15
2018-09-22T01:54:18.304Z,57.01
2018-09-22T01:56:45.508Z,56.97
2018-09-22T01:59:12.710Z,56.75
2018-09-22T02:01:39.983Z,57.24
2018-09-22T02:04:07.571Z,57.19
2018-09-22T02:06:34.830Z,56.97
2018-09-22T02:09:04.437Z,57.16
2018-09-22T02:11:31.781Z,57.56
2018-09-22T02:13:59.374Z,58.58
2018-09-22T02:16:26.625Z,58.50
2018-09-22T02:18:54.234Z,58.16
2018-09-22T02:21:22.228Z,58.08
2018-09-22T02:23:49.451Z,58.29
2018-09-22T02:26:16.798Z,58.40
2018-09-22T02:28:44.027Z,58.40
2018-09-22T02:31:11.221Z,58.31
2018-09-22T02:33:38.384Z,58.29
2018-09-22T02:36:05.627Z,57.98
2018-09-22T02:38:32.826Z,58.19
2018-09-22T02:41:00.124Z,57.66
2018-09-22T02:43:27.353Z,58.07
2018-09-22T02:45:54.629Z,58.54
2018-09-22T02:48:21.826Z,58.64
2018-09-22T02:50:49.017Z,58.60
2018-09-22T02:53:16.194Z,58.46
2018-09-22T02:55:43.528Z,58.78
2018-09-22T02:58:10.620Z,59.98
2018-09-22T03:00:37.767Z,59.39
2018-09-22T03:03:05.230Z,60.16
2018-09-22T03:05:32.347Z,59.68
2018-09-22T03:07:59.673Z,59.80
2018-09-22T03:10:26.921Z,60.01
2018-09-22T03:12:54.125Z,60.25
2018-09-22T03:15:21.323Z,60.45
2018-09-22T03:17:48.491Z,60.07
2018-09-22T03:20:16.499Z,59.84
2018-09-22T03:22:43.785Z,60.69
2018-09-22T03:25:10.966Z,59.87
2018-09-22T03:27:38.150Z,60.11
2018-09-22T03:30:06.361Z,60.16
2018-09-22T03:32:33.563Z,60.06
2018-09-22T03:35:01.585Z,60.17
2018-09-22T03:37:28.868Z,60.39
2018-09-22T03:39:56.034Z,60.48
2018-09-22T03:42:23.294Z,60.50
2018-09-22T03:44:50.443Z,60.50
2018-09-22T03:47:17.628Z,60.58
2018-09-22T03:49:44.893Z,60.34
2018-09-22T03:52:12.138Z,60.64
2018-09-22T03:54:39.342Z,61.37
2018-09-22T03:57:06.520Z,61.22
2018-09-22T03:59:33.640Z,61.13
2018-09-22T04:02:00.878Z,60.69
2018-09-22T04:04:28.049Z,60.55
2018-09-22T04:06:55.416Z,61.18
2018-09-22T04:09:22.605Z,61.49
2018-09-22T04:11:49.952Z,61.10
2018-09-22T04:14:17.065Z,61.20
2018-09-22T04:16:44.151Z,61.72
2018-09-22T04:19:11.331Z,61.38
2018-09-22T04:21:38.455Z,61.86
2018-09-22T04:24:10.426Z,61.17
2018-09-22T04:26:37.964Z,61.80
2018-09-22T04:29:05.215Z,61.62
2018-09-22T04:31:32.393Z,61.51
2018-09-22T04:33:59.551Z,62.04
2018-09-22T04:36:26.909Z,61.83
2018-09-22T04:38:54.461Z,61.99
2018-09-22T04:41:21.631Z,61.84
2018-09-22T04:43:49.171Z,62.09
2018-09-22T04:46:16.315Z,61.25
2018-09-22T04:48:43.419Z,61.25
2018-09-22T04:51:10.542Z,60.66
2018-09-22T04:53:37.666Z,61.71
2018-09-22T04:56:04.811Z,61.96
2018-09-22T04:58:31.914Z,62.13
2018-09-22T05:00:59.041Z,62.94
2018-09-22T05:03:26.165Z,62.88
2018-09-22T05:05:53.301Z,62.51
2018-09-22T05:08:20.435Z,62.01
2018-09-22T05:10:47.548Z,61.67
2018-09-22T05:13:14.651Z,61.74
2018-09-22T05:15:41.779Z,62.18
2018-09-22T05:18:08.869Z,62.08
2018-09-22T05:20:36.028Z,62.46
2018-09-22T05:23:03.147Z,62.39
2018-09-22T05:25:30.279Z,62.60
2018-09-22T05:27:57.608Z,62.50
2018-09-22T05:30:24.803Z,62.11
2018-09-22T05:32:52.006Z,62.03
2018-09-22T05:35:19.157Z,61.79
2018-09-22T05:37:46.389Z,62.78
2018-09-22T05:40:13.530Z,62.86
2018-09-22T05:42:40.627Z,62.41
2018-09-22T05:45:07.826Z,62.40
2018-09-22T05:47:34.929Z,62.36
2018-09-22T05:50:02.038Z,62.10
2018-09-22T05:52:29.165Z,62.26
2018-09-22T05:54:57.065Z,62.30
2018-09-22T05:57:24.270Z,62.78
2018-09-22T05:59:51.467Z,62.17
2018-09-22T06:02:18.616Z,62.79
2018-09-22T06:04:45.767Z,62.24
2018-09-22T06:07:13.034Z,61.93
2018-09-22T06:09:40.171Z,62.50
2018-09-22T06:12:07.346Z,62.98
2018-09-22T06:14:34.462Z,62.34
2018-09-22T06:17:01.614Z,62.50
2018-09-22T06:19:28.778Z,61.73
2018-09-22T06:21:55.969Z,61.94
2018-09-22T06:24:23.065Z,62.01
2018-09-22T06:26:50.295Z,62.01
2018-09-22T06:29:17.378Z,61.78
2018-09-22T06:31:44.510Z,62.10
2018-09-22T06:34:11.614Z,62.53
2018-09-22T06:36:38.753Z,62.12
2018-09-22T06:39:07.297Z,62.03
2018-09-22T06:41:34.475Z,62.53
2018-09-22T06:44:01.590Z,62.12
2018-09-22T06:46:28.898Z,61.77
2018-09-22T06:48:56.104Z,61.75
2018-09-22T06:51:23.221Z,61.99
2018-09-22T06:53:50.366Z,61.23
2018-09-22T06:56:17.516Z,61.82
2018-09-22T06:58:44.773Z,60.91
2018-09-22T07:01:11.948Z,61.19
2018-09-22T07:03:39.217Z,61.09
2018-09-22T07:06:06.712Z,61.18
2018-09-22T07:08:34.341Z,60.08
2018-09-22T07:11:01.440Z,59.84
2018-09-22T07:13:28.683Z,60.23
2018-09-22T07:15:55.883Z,60.05
2018-09-22T07:18:23.098Z,59.43
2018-09-22T07:20:55.930Z,59.77
2018-09-22T07:23:23.367Z,60.11
2018-09-22T07:25:50.604Z,59.72
2018-09-22T07:28:17.736Z,59.20
2018-09-22T07:30:45.105Z,58.86
2018-09-22T07:33:12.223Z,59.10
2018-09-22T07:35:39.389Z,58.80
2018-09-22T07:38:06.651Z,59.08
2018-09-22T07:40:33.858Z,59.09
2018-09-22T07:43:01.018Z,59.53
2018-09-22T07:45:28.256Z,59.43
2018-09-22T07:47:56.077Z,59.41
2018-09-22T07:50:23.273Z,58.71
2018-09-22T07:52:50.475Z,58.76
2018-09-22T07:55:17.610Z,59.13
2018-09-22T07:57:44.882Z,58.67
2018-09-22T08:00:12.111Z,58.92
2018-09-22T08:02:39.454Z,58.16
2018-09-22T08:05:07.815Z,58.27
2018-09-22T08:07:35.233Z,58.59
2018-09-22T08:10:02.647Z,58.15
2018-09-22T08:12:30.784Z,58.38
2018-09-22T08:14:59.092Z,57.87
2018-09-22T08:17:26.226Z,57.51
2018-09-22T08:19:53.780Z,58.15
2018-09-22T08:22:21.082Z,57.27
2018-09-22T08:24:48.319Z,57.32
2018-09-22T08:27:15.629Z,57.45
2018-09-22T08:29:42.815Z,57.56
2018-09-22T08:32:10.146Z,57.34
2018-09-22T08:34:37.412Z,57.44
2018-09-22T08:37:04.857Z,57.60
2018-09-22T08:39:31.994Z,57.69
2018-09-22T08:41:59.457Z,57.54
2018-09-22T08:44:26.596Z,58.11
2018-09-22T08:46:53.820Z,57.31
2018-09-22T08:49:21.040Z,57.58
2018-09-22T08:51:49.137Z,57.77
2018-09-22T08:54:16.332Z,57.90
2018-09-22T08:56:43.871Z,58.29
2018-09-22T08:59:11.256Z,57.18
2018-09-22T09:01:38.679Z,57.45
2018-09-22T09:04:05.850Z,56.86
2018-09-22T09:06:33.180Z,56.48
2018-09-22T09:09:00.571Z,56.19
2018-09-22T09:11:27.877Z,56.39
2018-09-22T09:13:55.010Z,56.79
2018-09-22T09:16:22.166Z,56.39
2018-09-22T09:18:49.348Z,56.36
2018-09-22T09:21:16.646Z,55.66
2018-09-22T09:23:43.921Z,56.55
2018-09-22T09:26:11.523Z,55.26
2018-09-22T09:28:48.162Z,54.88
2018-09-22T09:31:16.242Z,55.43
2018-09-22T09:33:43.416Z,54.96
2018-09-22T09:36:10.613Z,55.65
2018-09-22T09:38:37.890Z,54.35
2018-09-22T09:41:05.078Z,54.66
2018-09-22T09:43:32.434Z,54.04
2018-09-22T09:46:01.518Z,54.16
2018-09-22T09:48:28.838Z,53.24
2018-09-22T09:50:56.551Z,52.96
2018-09-22T09:53:24.707Z,52.67
2018-09-22T09:55:52.107Z,51.35
2018-09-22T09:58:19.314Z,51.59
2018-09-22T10:00:46.855Z,51.36
2018-09-22T10:03:15.986Z,51.07
2018-09-22T10:05:43.629Z,49.86
2018-09-22T10:08:10.801Z,49.69
2018-09-22T10:10:38.102Z,49.22
2018-09-22T10:13:05.298Z,48.38
2018-09-22T10:15:32.426Z,48.23
2018-09-22T10:17:59.529Z,48.92
2018-09-22T10:20:26.835Z,49.54
2018-09-22T10:22:54.065Z,47.64
2018-09-22T10:25:22.174Z,48.94
2018-09-22T10:27:49.332Z,47.87
2018-09-22T10:30:16.575Z,48.51
2018-09-22T10:32:43.700Z,47.15
2018-09-22T10:35:10.885Z,46.68
2018-09-22T10:37:37.974Z,47.87
2018-09-22T10:40:05.682Z,46.84
2018-09-22T10:42:32.878Z,47.35
2018-09-22T10:45:00.073Z,46.01
2018-09-22T10:47:27.317Z,46.05
2018-09-22T10:49:54.533Z,45.88
2018-09-22T10:52:21.728Z,45.77
2018-09-22T10:54:49.063Z,45.22
2018-09-22T10:57:16.384Z,44.20
2018-09-22T10:59:43.590Z,44.29
2018-09-22T11:02:10.749Z,43.41
2018-09-22T11:04:37.994Z,44.00
2018-09-22T11:07:05.249Z,44.37
2018-09-22T11:09:32.457Z,42.59
2018-09-22T11:11:59.784Z,41.66
2018-09-22T11:14:26.961Z,41.32
2018-09-22T11:16:54.154Z,41.54
2018-09-22T11:19:21.497Z,42.28
2018-09-22T11:21:48.775Z,42.15
2018-09-22T11:24:15.988Z,42.05
2018-09-22T11:26:43.170Z,41.73
2018-09-22T11:29:10.409Z,41.90
2018-09-22T11:31:37.818Z,42.44
2018-09-22T11:34:05.200Z,41.68
2018-09-22T11:36:32.461Z,41.32
2018-09-22T11:38:59.632Z,41.41
2018-09-22T11:41:27.626Z,41.27
2018-09-22T11:43:54.793Z,39.73
2018-09-22T11:46:21.964Z,39.59
2018-09-22T11:48:49.874Z,40.25
2018-09-22T11:51:17.020Z,39.88
2018-09-22T11:53:44.238Z,40.02
2018-09-22T11:56:11.507Z,39.89
2018-09-22T11:58:38.758Z,39.36
2018-09-22T12:01:05.942Z,39.63
2018-09-22T12:03:33.519Z,38.62
2018-09-22T12:06:00.627Z,39.15
2018-09-22T12:08:27.914Z,37.93
2018-09-22T12:10:55.167Z,37.60
2018-09-22T12:13:22.387Z,38.56
2018-09-22T12:15:49.562Z,36.58
2018-09-22T12:18:16.743Z,36.96
2018-09-22T12:20:43.866Z,37.01
2018-09-22T12:23:11.060Z,36.40
2018-09-22T12:25:38.298Z,36.73
2018-09-22T12:28:06.033Z,37.43
2018-09-22T12:30:33.517Z,37.37
2018-09-22T12:33:00.741Z,37.33
2018-09-22T12:35:28.186Z,37.64
2018-09-22T12:37:55.384Z,35.97
2018-09-22T12:40:22.628Z,37.32
2018-09-22T12:42:49.853Z,38.08
2018-09-22T12:45:17.107Z,37.42
2018-09-22T12:47:44.238Z,37.13
2018-09-22T12:50:11.417Z,36.46
2018-09-22T12:52:38.570Z,35.41
2018-09-22T12:55:05.850Z,35.67
2018-09-22T12:57:34.155Z,36.31
2018-09-22T13:00:01.463Z,36.53
2018-09-22T13:02:28.631Z,36.06
2018-09-22T13:04:55.782Z,36.09
2018-09-22T13:07:22.895Z,34.76
2018-09-22T13:09:50.342Z,35.72
2018-09-22T13:12:17.495Z,34.86
2018-09-22T13:14:44.946Z,35.20
2018-09-22T13:17:12.233Z,35.71
2018-09-22T13:19:39.356Z,36.24
2018-09-22T13:22:06.768Z,35.90
2018-09-22T13:24:33.906Z,36.68
2018-09-22T13:27:01.050Z,35.94
2018-09-22T13:29:28.664Z,35.75
2018-09-22T13:31:55.825Z,35.39
2018-09-22T13:34:22.963Z,35.19
2018-09-22T13:36:50.162Z,35.42
2018-09-22T13:39:17.305Z,35.28
2018-09-22T13:41:44.524Z,35.25
2018-09-22T13:44:11.712Z,35.57
2018-09-22T13:46:39.372Z,36.07
2018-09-22T13:49:06.481Z,35.59
2018-09-22T13:51:33.814Z,36.02
2018-09-22T13:54:00.946Z,36.20
2018-09-22T13:56:28.237Z,36.24
2018-09-22T13:58:55.522Z,36.22
2018-09-22T14:01:22.667Z,37.44
2018-09-22T14:03:49.913Z,37.42
2018-09-22T14:06:17.185Z,36.62
2018-09-22T14:08:44.467Z,37.37
2018-09-22T14:11:11.858Z,37.52
2018-09-22T14:13:39.134Z,36.76
2018-09-22T14:16:06.263Z,37.40
2018-09-22T14:18:33.516Z,37.33
2018-09-22T14:21:00.657Z,36.80
2018-09-22T14:23:27.934Z,37.22
2018-09-22T14:25:55.118Z,37.44
2018-09-22T14:28:22.312Z,37.14
2018-09-22T14:30:49.445Z,37.06
2018-09-22T14:33:16.594Z,37.41
2018-09-22T14:35:43.717Z,36.50
2018-09-22T14:38:10.918Z,36.37
2018-09-22T14:40:38.568Z,37.58
2018-09-22T14:43:06.260Z,37.93
2018-09-22T14:45:33.431Z,38.40
2018-09-22T14:48:01.294Z,37.51
2018-09-22T14:50:28.483Z,37.98
2018-09-22T14:52:55.741Z,38.56
2018-09-22T14:55:23.009Z,38.77
2018-09-22T14:57:50.254Z,39.13
2018-09-22T15:00:17.442Z,39.16
2018-09-22T15:02:44.549Z,39.62
2018-09-22T15:05:11.994Z,39.23
2018-09-22T15:07:39.272Z,39.23
2018-09-22T15:10:06.526Z,39.26
2018-09-22T15:12:34.966Z,38.93
2018-09-22T15:15:02.204Z,39.58
2018-09-22T15:17:29.438Z,38.73
2018-09-22T15:19:57.162Z,38.92
2018-09-22T15:22:24.379Z,38.99
2018-09-22T15:24:51.657Z,39.38
2018-09-22T15:27:18.790Z,38.54
2018-09-22T15:29:45.954Z,39.02
2018-09-22T15:32:13.088Z,39.82
2018-09-22T15:34:40.293Z,39.38
2018-09-22T15:37:07.481Z,39.44
2018-09-22T15:39:34.578Z,40.19
2018-09-22T15:42:01.698Z,39.93
2018-09-22T15:44:28.989Z,40.17
2018-09-22T15:46:56.155Z,40.55
2018-09-22T15:49:23.420Z,40.10
2018-09-22T15:51:50.903Z,40.23
2018-09-22T15:54:18.094Z,40.05
2018-09-22T15:56:45.327Z,40.69
2018-09-22T15:59:12.790Z,40.23
2018-09-22T16:01:40.098Z,40.45
2018-09-22T16:04:07.497Z,40.06
2018-09-22T16:06:35.430Z,40.81
2018-09-22T16:09:03.694Z,41.16
2018-09-22T16:11:30.871Z,41.06
2018-09-22T16:13:57.974Z,41.20
2018-09-22T16:16:25.413Z,41.49
2018-09-22T16:18:52.538Z,41.70
2018-09-22T16:21:20.247Z,41.92
2018-09-22T16:23:47.585Z,41.82
2018-09-22T16:26:14.796Z,43.08
2018-09-22T16:28:42.058Z,42.63
2018-09-22T16:31:09.369Z,42.27
2018-09-22T16:33:36.583Z,42.86
2018-09-22T16:36:03.926Z,42.54
2018-09-22T16:38:31.086Z,43.19
2018-09-22T16:40:58.293Z,43.05
2018-09-22T16:43:25.597Z,43.00
2018-09-22T16:45:52.774Z,43.19
2018-09-22T16:48:20.061Z,43.73
2018-09-22T16:50:47.306Z,42.99
2018-09-22T16:53:14.538Z,43.81
2018-09-22T16:55:42.543Z,43.52
2018-09-22T16:58:09.695Z,43.92
2018-09-22T17:00:37.344Z,44.09
2018-09-22T17:03:04.677Z,44.99
2018-09-22T17:05:33.709Z,44.98
2018-09-22T17:08:00.898Z,45.74
2018-09-22T17:10:28.025Z,46.74
2018-09-22T17:12:55.142Z,48.00
2018-09-22T17:15:22.354Z,49.03
2018-09-22T17:17:49.475Z,48.43
2018-09-22T17:20:16.721Z,49.26
2018-09-22T17:22:44.090Z,51.04
2018-09-22T17:25:11.213Z,51.55
2018-09-22T17:27:38.906Z,52.66
2018-09-22T17:30:06.347Z,56.87
2018-09-22T17:32:34.534Z,58.16
2018-09-22T17:35:01.851Z,58.96
2018-09-22T17:37:29.628Z,59.14
2018-09-22T17:39:56.857Z,60.34
2018-09-22T17:42:24.053Z,60.02
2018-09-22T17:44:51.566Z,61.35
2018-09-22T17:47:18.698Z,61.80
2018-09-22T17:49:45.914Z,63.36
2018-09-22T17:52:13.107Z,62.88
2018-09-22T17:54:40.294Z,63.94
2018-09-22T17:57:07.440Z,64.82
2018-09-22T17:59:34.659Z,64.15
2018-09-22T18:02:01.822Z,64.35
2018-09-22T18:04:29.002Z,65.46
2018-09-22T18:06:56.317Z,64.88
2018-09-22T18:09:23.617Z,63.81
2018-09-22T18:11:50.743Z,64.87
2018-09-22T18:14:17.880Z,66.94
2018-09-22T18:16:45.374Z,68.45
2018-09-22T18:19:12.613Z,67.77
2018-09-22T18:21:40.045Z,69.17
2018-09-22T18:24:07.449Z,68.75
2018-09-22T18:26:34.734Z,69.99
2018-09-22T18:29:01.995Z,70.04
2018-09-22T18:31:29.266Z,69.17
2018-09-22T18:33:56.561Z,69.25
2018-09-22T18:36:23.991Z,71.42
2018-09-22T18:38:51.998Z,71.69
2018-09-22T18:41:19.165Z,71.72
2018-09-22T18:43:46.752Z,72.66
2018-09-22T18:46:14.243Z,72.65
2018-09-22T18:48:41.477Z,72.58
2018-09-22T18:51:08.733Z,72.64
2018-09-22T18:53:35.878Z,70.65
2018-09-22T18:56:03.130Z,71.26
2018-09-22T18:58:30.376Z,71.72
2018-09-22T19:00:57.531Z,72.60
2018-09-22T19:03:24.783Z,72.45
2018-09-22T19:05:52.037Z,72.11
2018-09-22T19:08:20.336Z,72.21
2018-09-22T19:10:47.695Z,73.15
2018-09-22T19:13:18.663Z,73.07
2018-09-22T19:15:49.114Z,73.86
2018-09-22T19:18:55.257Z,73.09
2018-09-22T19:21:31.258Z,73.54
2018-09-22T19:24:01.059Z,73.38
2018-09-22T19:26:39.507Z,73.35
2018-09-22T19:30:09.875Z,73.11
2018-09-22T19:32:40.471Z,73.55
2018-09-22T19:35:15.392Z,74.21
2018-09-22T19:37:47.242Z,73.80
2018-09-22T19:40:17.771Z,73.70
2018-09-22T19:42:50.647Z,74.11
2018-09-22T19:45:35.953Z,73.77
2018-09-22T19:48:16.194Z,74.41
2018-09-22T19:50:49.234Z,74.85
2018-09-22T19:53:16.442Z,75.07
2018-09-22T19:55:43.631Z,75.17
2018-09-22T19:58:11.237Z,74.22
2018-09-22T20:00:38.659Z,74.86
2018-09-22T20:03:05.948Z,74.29
2018-09-22T20:05:33.299Z,74.16
2018-09-22T20:08:00.477Z,74.98
2018-09-22T20:10:27.699Z,74.55
2018-09-22T20:12:55.115Z,75.09
2018-09-22T20:15:22.309Z,74.67
2018-09-22T20:17:49.563Z,74.36
2018-09-22T20:20:16.770Z,74.06
2018-09-22T20:22:43.866Z,74.23
2018-09-22T20:25:11.022Z,74.25
2018-09-22T20:27:38.152Z,74.78
2018-09-22T20:30:05.505Z,74.68
2018-09-22T20:32:32.648Z,75.59
2018-09-22T20:34:59.794Z,75.26
2018-09-22T20:37:27.066Z,74.38
2018-09-22T20:39:54.317Z,74.98
2018-09-22T20:42:21.527Z,75.70
2018-09-22T20:44:49.279Z,75.43
2018-09-22T20:47:16.421Z,75.28
2018-09-22T20:49:43.637Z,75.79
2018-09-22T20:52:10.794Z,75.10
2018-09-22T20:54:37.923Z,75.43
2018-09-22T20:57:05.171Z,75.28
2018-09-22T20:59:32.537Z,75.37
2018-09-22T21:01:59.790Z,74.73
2018-09-22T21:04:27.005Z,75.51
2018-09-22T21:06:54.258Z,75.57
2018-09-22T21:09:21.569Z,76.34
2018-09-22T21:11:48.937Z,76.01
2018-09-22T21:14:16.097Z,76.32
2018-09-22T21:16:43.329Z,75.83
2018-09-22T21:19:10.496Z,76.14
2018-09-22T21:21:37.856Z,75.62
2018-09-22T21:24:05.114Z,76.66
2018-09-22T21:26:32.249Z,75.53
2018-09-22T21:28:59.554Z,76.22
2018-09-22T21:31:26.796Z,75.31
2018-09-22T21:33:53.968Z,75.35
2018-09-22T21:36:21.284Z,75.54
2018-09-22T21:38:48.449Z,76.15
2018-09-22T21:41:15.655Z,75.61
2018-09-22T21:43:42.952Z,76.03
2018-09-22T21:46:10.077Z,75.75
2018-09-22T21:48:37.258Z,76.58
2018-09-22T21:51:04.429Z,76.34
2018-09-22T21:53:31.683Z,76.56
2018-09-22T21:55:58.904Z,76.17
2018-09-22T21:58:26.157Z,76.13
2018-09-22T22:00:53.707Z,76.40
2018-09-22T22:03:22.046Z,73.83
2018-09-22T22:05:49.193Z,74.77
2018-09-22T22:08:16.778Z,75.00
2018-09-22T22:10:44.254Z,76.21
2018-09-22T22:13:11.519Z,75.20
2018-09-22T22:15:39.031Z,75.17
2018-09-22T22:18:06.214Z,75.13
2018-09-22T22:20:33.354Z,75.29
2018-09-22T22:23:00.605Z,75.79
2018-09-22T22:25:27.726Z,76.39
2018-09-22T22:27:54.922Z,76.14
2018-09-22T22:30:22.071Z,76.35
2018-09-22T22:32:49.331Z,76.12
2018-09-22T22:35:16.610Z,76.09
2018-09-22T22:37:43.839Z,76.07
2018-09-22T22:40:10.998Z,75.66
2018-09-22T22:42:38.222Z,75.39
2018-09-22T22:45:05.404Z,75.93
2018-09-22T22:47:32.687Z,73.36
2018-09-22T22:49:59.889Z,74.76
2018-09-22T22:52:26.998Z,74.81
2018-09-22T22:54:54.174Z,73.86
2018-09-22T22:57:21.390Z,73.81
2018-09-22T22:59:48.581Z,73.81
2018-09-22T23:02:15.760Z,73.16
2018-09-22T23:04:42.911Z,73.54
2018-09-22T23:07:10.002Z,73.75
2018-09-22T23:09:37.302Z,73.55
2018-09-22T23:12:04.914Z,73.03
2018-09-22T23:14:32.018Z,73.28
2018-09-22T23:16:59.143Z,72.30
2018-09-22T23:19:26.290Z,71.94
2018-09-22T23:21:53.562Z,72.28
2018-09-22T23:24:20.698Z,72.71
2018-09-22T23:26:47.946Z,72.21
2018-09-22T23:29:15.145Z,71.74
2018-09-22T23:31:42.306Z,71.60
2018-09-22T23:34:09.458Z,72.06
2018-09-22T23:36:36.617Z,71.88
2018-09-22T23:39:05.940Z,70.91
2018-09-22T23:41:33.201Z,70.92
2018-09-22T23:44:00.517Z,71.01
2018-09-22T23:46:27.811Z,70.91
2018-09-22T23:48:55.046Z,70.59
2018-09-22T23:51:22.172Z,71.95
2018-09-22T23:53:49.346Z,72.19
2018-09-22T23:56:16.469Z,72.38
2018-09-22T23:58:43.666Z,73.07
